MMTJ/TIJ METAR and TAF weather

Enter ICAO airport designator
Station Type Date Time Source
MMTJ METAR 2022/06/30 00:40 UTC NOAA

MMTJ 300040Z 31008KT 10SM SKC 25/16 A3000 RMK HZY


Station Type Date Time Source
MMTJ Decoded METAR 2022/06/30 00:40 UTC NOAA

Tijuana International Airport , Mexico (MMTJ) 32-33N 116-58W
Jun 29, 2022 - 08:40 PM EDT / 2022.06.30 0040 UTC
Wind: from the NW (310 degrees) at 9 MPH (8 KT):0
Visibility: 10 mile(s):0
Sky conditions: clear
Temperature: 77 F (25 C)
Dew Point: 60 F (16 C)
Relative Humidity: 57%
Pressure (altimeter): 30 in. Hg (1015 hPa)
ob: MMTJ 300040Z 31008KT 10SM SKC 25/16 A3000 RMK HZY
cycle: 0

Station Type Date Time Source
MMTJ TAF 2022/06/29 18:16 UTC NOAA

TAF MMTJ 291708Z 2918/3024 00000KT P6SM SCT250 TX29/2920Z TN18/3012Z
FM300600 29005KT P6SM SCT010
FM300900 00000KT 3SM BR HZ BKN007
TEMPO 3011/3015 1SM BR HZ OVC004
FM301800 33010KT P6SM SCT250

Example: see airport list